Time;durP1;ratioP1;P1;durP2;ratioP2;P2;SDS_P1;SDS_P2;PMS_P1;PMS_P2;Temp;Humidity;BMP_temperature;BMP_pressure;BME280_temperature;BME280_humidity;BME280_pressure;Samples;Min_cycle;Max_cycle;Signal;HPM_P1;HPM_P2
2021/03/23 00:03:54;;;;;;;7.60;4.87;;;;;;;3.95;100.00;98956.61;3656496;80;43369;-72
2021/03/23 00:09:02;;;;;;;10.27;5.37;;;;;;;3.92;100.00;98959.97;3612005;81;44332;-72
2021/03/23 00:14:10;;;;;;;9.33;5.50;;;;;;;3.93;100.00;98960.35;3613814;81;43383;-71
2021/03/23 00:19:17;;;;;;;9.53;5.30;;;;;;;4.03;100.00;98965.91;3660088;81;44086;-72
2021/03/23 00:24:23;;;;;;;9.90;5.57;;;;;;;4.04;100.00;98970.29;3615679;81;44071;-73
2021/03/23 00:29:29;;;;;;;10.23;6.03;;;;;;;4.06;100.00;98968.38;3661700;81;43052;-72
2021/03/23 00:34:35;;;;;;;9.83;5.77;;;;;;;4.09;100.00;98972.14;3623975;81;43431;-72
2021/03/23 00:39:41;;;;;;;9.40;5.57;;;;;;;4.08;100.00;98970.43;3664259;79;43630;-72
2021/03/23 00:44:48;;;;;;;11.37;6.07;;;;;;;4.07;100.00;98973.59;3642805;78;43614;-72
2021/03/23 00:49:54;;;;;;;10.97;6.60;;;;;;;4.04;100.00;98966.29;3660848;81;44097;-72
2021/03/23 00:55:00;;;;;;;9.60;6.30;;;;;;;4.11;100.00;98964.43;3661544;80;44528;-72
2021/03/23 01:00:09;;;;;;;11.40;6.50;;;;;;;4.09;100.00;98962.80;3621504;82;44424;-70
2021/03/23 01:05:18;;;;;;;11.30;6.57;;;;;;;4.04;100.00;98959.63;3629328;81;44032;-72
2021/03/23 01:10:27;;;;;;;11.30;6.80;;;;;;;4.03;100.00;98955.25;3635456;81;44043;-72
2021/03/23 01:15:35;;;;;;;12.80;6.73;;;;;;;4.08;100.00;98950.44;3623054;80;44071;-72
2021/03/23 01:20:41;;;;;;;13.53;7.37;;;;;;;4.15;100.00;98950.39;3670715;80;44038;-72
2021/03/23 01:25:47;;;;;;;13.10;6.70;;;;;;;4.08;100.00;98947.77;3650116;80;44606;-73
2021/03/23 01:30:53;;;;;;;12.67;6.83;;;;;;;4.09;100.00;98946.81;3683618;80;44450;-72
2021/03/23 01:35:59;;;;;;;12.60;7.20;;;;;;;4.03;100.00;98945.42;3654518;80;43579;-72
2021/03/23 01:41:05;;;;;;;13.27;7.53;;;;;;;4.03;100.00;98941.42;3680661;80;43752;-72
2021/03/23 01:46:38;;;;;;;13.40;7.43;;;;;;;4.10;100.00;98939.19;3658202;80;43210;-72
2021/03/23 01:51:46;;;;;;;11.33;6.87;;;;;;;4.12;100.00;98941.27;3587402;82;43694;-71
2021/03/23 01:56:55;;;;;;;14.43;7.20;;;;;;;4.14;100.00;98942.02;3647028;80;43681;-72
2021/03/23 02:02:03;;;;;;;15.53;7.60;;;;;;;4.08;100.00;98943.77;3651755;81;42979;-72
2021/03/23 02:07:10;;;;;;;12.87;7.43;;;;;;;4.05;100.00;98952.00;3581462;81;43693;-72
2021/03/23 02:12:19;;;;;;;12.63;7.00;;;;;;;4.04;100.00;98942.30;3625797;81;43737;-72
2021/03/23 02:17:28;;;;;;;12.60;6.20;;;;;;;4.08;100.00;98945.09;3635572;81;43706;-72
2021/03/23 02:22:38;;;;;;;11.63;6.60;;;;;;;4.11;100.00;98940.89;3677863;80;43749;-72
2021/03/23 02:27:44;;;;;;;13.97;7.07;;;;;;;4.01;100.00;98946.88;3569783;81;44519;-71
2021/03/23 02:32:50;;;;;;;11.53;6.77;;;;;;;4.04;100.00;98947.63;3568871;81;44602;-71
2021/03/23 02:37:59;;;;;;;12.40;6.67;;;;;;;4.01;100.00;98950.00;3645740;80;43268;-71
2021/03/23 02:43:05;;;;;;;12.37;6.77;;;;;;;4.01;100.00;98952.20;3596457;81;44015;-71
2021/03/23 02:48:11;;;;;;;11.87;6.37;;;;;;;4.02;100.00;98947.71;3718305;80;43285;-71
2021/03/23 02:53:20;;;;;;;13.30;7.33;;;;;;;3.94;100.00;98951.40;3670458;80;43420;-71
2021/03/23 02:58:30;;;;;;;13.27;6.40;;;;;;;3.90;100.00;98953.43;3666515;80;43386;-71
2021/03/23 03:03:37;;;;;;;10.40;6.07;;;;;;;3.85;100.00;98963.55;3644256;80;44047;-72
2021/03/23 03:08:44;;;;;;;16.63;7.03;;;;;;;3.83;100.00;98964.12;3634231;81;43731;-71
2021/03/23 03:13:50;;;;;;;13.97;7.00;;;;;;;3.80;100.00;98963.02;3631160;80;43681;-72
2021/03/23 03:18:57;;;;;;;15.83;7.33;;;;;;;3.73;100.00;98971.91;3686985;80;43688;-71
2021/03/23 03:24:04;;;;;;;15.37;7.00;;;;;;;3.55;100.00;98969.52;3649207;80;43363;-71
2021/03/23 03:29:11;;;;;;;14.07;7.30;;;;;;;3.47;100.00;98963.86;3687363;80;26891;-71
2021/03/23 03:34:20;;;;;;;16.03;7.97;;;;;;;3.41;100.00;98968.25;3652797;80;44063;-71
2021/03/23 03:39:25;;;;;;;15.07;7.33;;;;;;;3.32;100.00;98971.07;3687537;80;43696;-71
2021/03/23 03:44:31;;;;;;;16.73;8.00;;;;;;;3.32;100.00;98982.18;3652471;80;43439;-71
2021/03/23 03:49:37;;;;;;;14.67;7.70;;;;;;;3.26;100.00;98975.94;3637619;81;44520;-71
2021/03/23 03:54:43;;;;;;;15.93;8.37;;;;;;;3.21;100.00;98979.75;3675075;80;43391;-71
2021/03/23 03:59:49;;;;;;;19.27;9.00;;;;;;;3.24;100.00;98984.02;3686888;80;44698;-71
2021/03/23 04:04:55;;;;;;;18.17;8.40;;;;;;;3.27;100.00;98986.48;3632681;80;43674;-70
2021/03/23 04:10:01;;;;;;;17.43;8.97;;;;;;;3.31;100.00;98992.45;3669801;79;44074;-71
2021/03/23 04:15:09;;;;;;;19.83;9.57;;;;;;;3.35;100.00;98997.97;3624570;81;44125;-70
2021/03/23 04:20:17;;;;;;;17.27;8.70;;;;;;;3.34;100.00;98996.26;3658838;81;43379;-69
2021/03/23 04:25:26;;;;;;;21.43;9.30;;;;;;;3.37;100.00;99006.72;3625264;81;44580;-71
2021/03/23 04:30:32;;;;;;;17.30;8.73;;;;;;;3.30;100.00;99002.27;3658545;81;44114;-70
2021/03/23 04:35:43;;;;;;;19.03;8.63;;;;;;;3.39;100.00;98996.82;3605979;81;44033;-70
2021/03/23 04:40:51;;;;;;;22.13;9.17;;;;;;;3.26;100.00;98996.75;3660177;79;43676;-71
2021/03/23 04:45:57;;;;;;;16.53;8.70;;;;;;;3.33;100.00;98995.87;3617840;81;44536;-69
2021/03/23 04:51:05;;;;;;;24.87;9.30;;;;;;;3.28;100.00;99008.66;3623442;81;43439;-69
2021/03/23 04:56:19;;;;;;;19.40;9.30;;;;;;;3.26;100.00;99013.23;3566578;82;42957;-69
2021/03/23 05:01:26;;;;;;;19.97;9.27;;;;;;;3.21;100.00;99014.86;3681345;79;43427;-69
2021/03/23 05:06:33;;;;;;;20.57;9.23;;;;;;;3.17;100.00;99009.34;3628321;81;44196;-69
2021/03/23 05:11:40;;;;;;;21.53;9.40;;;;;;;3.14;100.00;99008.20;3637414;81;44550;-69
2021/03/23 05:16:46;;;;;;;18.63;9.40;;;;;;;3.11;100.00;99009.76;3639317;81;44430;-69
2021/03/23 05:21:52;;;;;;;18.37;8.90;;;;;;;3.08;100.00;99014.78;3580589;82;43691;-69
2021/03/23 05:26:58;;;;;;;18.37;9.30;;;;;;;3.07;100.00;99019.27;3572274;82;44112;-69
2021/03/23 05:32:05;;;;;;;17.10;8.70;;;;;;;3.05;100.00;99017.66;3552208;82;43314;-69
2021/03/23 05:37:11;;;;;;;18.80;9.17;;;;;;;3.01;100.00;99015.66;3570178;82;43471;-69
2021/03/23 05:42:21;;;;;;;15.03;7.67;;;;;;;3.04;100.00;99019.95;3684241;79;43335;-69
2021/03/23 05:47:33;;;;;;;17.07;7.93;;;;;;;3.04;100.00;99022.12;3628138;81;44449;-69
2021/03/23 05:52:43;;;;;;;13.10;6.67;;;;;;;3.07;100.00;99024.59;3691870;79;44061;-69
2021/03/23 05:57:52;;;;;;;13.07;6.63;;;;;;;3.11;100.00;99029.73;3669036;80;43163;-69
2021/03/23 06:03:02;;;;;;;11.27;6.47;;;;;;;3.15;100.00;99037.41;3662756;80;43678;-69
2021/03/23 06:08:18;;;;;;;11.37;6.37;;;;;;;3.20;100.00;99038.45;3587065;82;44102;-69
2021/03/23 06:13:27;;;;;;;11.57;6.13;;;;;;;3.14;100.00;99042.81;3667027;80;44063;-69
2021/03/23 06:18:35;;;;;;;12.77;6.17;;;;;;;3.25;100.00;99049.63;3665170;80;43718;-69
2021/03/23 06:24:00;;;;;;;8.57;5.70;;;;;;;3.27;100.00;99058.39;3672710;80;44630;-69
2021/03/23 06:29:11;;;;;;;10.20;5.33;;;;;;;3.22;100.00;99055.19;3649443;80;44422;-69
2021/03/23 06:34:20;;;;;;;9.47;5.40;;;;;;;3.29;100.00;99057.81;3658279;79;43674;-70
2021/03/23 06:39:27;;;;;;;10.97;5.63;;;;;;;3.32;100.00;99060.29;3670952;80;43624;-74
2021/03/23 06:44:35;;;;;;;12.43;6.07;;;;;;;3.34;100.00;99057.05;3658299;80;44008;-69
2021/03/23 06:49:41;;;;;;;11.00;6.40;;;;;;;3.36;100.00;99060.45;3590509;82;44006;-69
2021/03/23 06:55:06;;;;;;;14.50;5.80;;;;;;;3.42;100.00;99060.52;3631790;80;43597;-68
2021/03/23 07:00:22;;;;;;;13.67;6.23;;;;;;;3.39;100.00;99068.25;3576755;82;43991;-69
2021/03/23 07:05:35;;;;;;;9.70;6.03;;;;;;;3.40;100.00;99061.13;3590498;82;43578;-72
2021/03/23 07:10:44;;;;;;;10.13;5.70;;;;;;;3.46;100.00;99055.87;3592760;82;43800;-69
2021/03/23 07:15:57;;;;;;;9.03;5.57;;;;;;;3.51;100.00;99057.74;3587190;82;44133;-67
2021/03/23 07:21:06;;;;;;;8.70;5.33;;;;;;;3.56;100.00;99056.98;3590716;82;43017;-67
2021/03/23 07:26:24;;;;;;;9.00;5.07;;;;;;;3.65;100.00;99056.36;3586283;82;43668;-67
2021/03/23 07:31:33;;;;;;;10.00;5.03;;;;;;;3.70;100.00;99056.05;3586237;82;43766;-71
2021/03/23 07:36:44;;;;;;;7.20;4.57;;;;;;;3.72;100.00;99059.48;3539564;83;43363;-68
2021/03/23 07:41:55;;;;;;;6.13;4.10;;;;;;;3.73;100.00;99054.98;3525157;82;44772;-70
2021/03/23 07:47:04;;;;;;;6.80;4.30;;;;;;;3.75;100.00;99058.41;3641174;81;43681;-70
2021/03/23 07:52:24;;;;;;;6.80;4.37;;;;;;;3.69;100.00;99068.54;3640978;81;43661;-69
2021/03/23 07:57:46;;;;;;;6.80;4.50;;;;;;;3.78;100.00;99067.55;3658723;79;44209;-68
2021/03/23 08:03:12;;;;;;;6.70;4.17;;;;;;;3.89;100.00;99074.80;3594040;81;43394;-68
2021/03/23 08:08:38;;;;;;;7.03;4.10;;;;;;;3.98;100.00;99081.72;3598488;81;43024;-69
2021/03/23 08:13:49;;;;;;;5.77;3.73;;;;;;;4.05;100.00;99075.98;3552567;83;43567;-69
2021/03/23 08:19:16;;;;;;;7.10;4.17;;;;;;;4.07;100.00;99084.71;3590725;81;43690;-69
2021/03/23 08:24:37;;;;;;;6.60;4.77;;;;;;;4.13;100.00;99086.48;3695926;77;43833;-70
2021/03/23 08:29:47;;;;;;;6.30;4.20;;;;;;;4.16;100.00;99086.78;3794202;77;44152;-70
2021/03/23 08:35:28;;;;;;;4.83;3.10;;;;;;;4.27;100.00;99093.58;3783704;77;44067;-70
2021/03/23 08:40:38;;;;;;;5.17;2.90;;;;;;;4.39;100.00;99101.20;3778101;77;42887;-69
2021/03/23 08:45:47;;;;;;;4.87;3.57;;;;;;;4.27;100.00;99100.24;3718212;77;122820;-70
2021/03/23 08:50:57;;;;;;;6.97;4.03;;;;;;;4.31;100.00;99108.88;3717311;79;43349;-69
2021/03/23 08:56:04;;;;;;;6.70;3.80;;;;;;;4.36;100.00;99112.08;3700917;78;44039;-69
2021/03/23 09:01:31;;;;;;;6.30;3.80;;;;;;;4.26;100.00;99116.33;3683488;79;44466;-70
2021/03/23 09:06:53;;;;;;;8.13;4.03;;;;;;;4.20;100.00;99120.27;3683242;79;43988;-70
2021/03/23 09:12:15;;;;;;;9.50;5.00;;;;;;;4.29;100.00;99119.64;3676458;79;44027;-69
2021/03/23 09:17:38;;;;;;;9.33;5.60;;;;;;;4.47;100.00;99112.69;3690907;79;44640;-70
2021/03/23 09:22:45;;;;;;;8.80;5.17;;;;;;;4.51;100.00;99117.33;3690556;79;42806;-69
2021/03/23 09:28:03;;;;;;;8.83;5.73;;;;;;;4.48;100.00;99121.07;3679774;79;44669;-71
2021/03/23 09:33:37;;;;;;;7.63;5.50;;;;;;;4.47;100.00;99123.36;3679307;79;43721;-71
2021/03/23 09:38:45;;;;;;;7.97;5.63;;;;;;;4.58;100.00;99123.97;3694167;79;44082;-71
2021/03/23 09:43:56;;;;;;;8.70;5.60;;;;;;;4.52;100.00;99121.70;3657227;79;44075;-71
2021/03/23 09:49:18;;;;;;;9.17;5.87;;;;;;;4.59;100.00;99127.86;3686646;77;45091;-71
2021/03/23 09:54:28;;;;;;;8.23;5.57;;;;;;;4.63;100.00;99126.69;3673936;79;43431;-72
2021/03/23 09:59:35;;;;;;;8.77;5.87;;;;;;;4.54;100.00;99117.13;3688695;79;43676;-70
2021/03/23 10:04:42;;;;;;;8.63;5.33;;;;;;;4.57;100.00;99112.42;3685663;79;44084;-71
2021/03/23 10:09:48;;;;;;;8.43;5.63;;;;;;;4.51;100.00;99116.86;3684913;79;43151;-71
2021/03/23 10:14:54;;;;;;;7.90;5.47;;;;;;;4.61;100.00;99115.27;3665717;79;43342;-71
2021/03/23 10:20:02;;;;;;;9.03;5.47;;;;;;;4.57;100.00;99117.76;3666886;79;44482;-70
2021/03/23 10:25:13;;;;;;;8.70;5.87;;;;;;;4.64;100.00;99123.53;3680022;79;44095;-70
2021/03/23 10:30:24;;;;;;;9.47;6.20;;;;;;;4.63;100.00;99128.49;3689344;79;45215;-70
2021/03/23 10:35:33;;;;;;;10.07;6.33;;;;;;;4.74;100.00;99123.27;3677376;79;44064;-71
2021/03/23 10:40:39;;;;;;;8.90;6.50;;;;;;;4.75;100.00;99130.31;3670711;79;43021;-71
2021/03/23 10:45:46;;;;;;;11.90;7.03;;;;;;;4.69;100.00;99132.55;3690684;79;43155;-70
2021/03/23 10:51:12;;;;;;;10.27;6.60;;;;;;;4.68;100.00;99128.17;3680892;79;43444;-70
2021/03/23 10:56:29;;;;;;;11.63;6.70;;;;;;;4.69;100.00;99137.42;3687132;79;44150;-70
2021/03/23 11:01:37;;;;;;;10.30;6.63;;;;;;;4.69;100.00;99148.56;3716125;79;44060;-71
2021/03/23 11:06:43;;;;;;;11.27;6.27;;;;;;;4.73;100.00;99148.74;3716703;79;44385;-70
2021/03/23 11:11:50;;;;;;;10.67;7.17;;;;;;;4.79;100.00;99146.96;3722382;79;44068;-70
2021/03/23 11:16:59;;;;;;;15.03;8.10;;;;;;;4.92;100.00;99141.64;3717575;79;43011;-70
2021/03/23 11:22:05;;;;;;;14.53;8.40;;;;;;;4.89;100.00;99144.02;3708784;79;43478;-70
2021/03/23 11:27:11;;;;;;;15.37;9.37;;;;;;;4.74;100.00;99149.12;3721922;79;44075;-70
2021/03/23 11:32:17;;;;;;;17.57;10.43;;;;;;;4.63;100.00;99155.19;3709630;79;43716;-70
2021/03/23 11:37:23;;;;;;;18.47;11.00;;;;;;;4.43;100.00;99156.08;3645795;81;43588;-71
2021/03/23 11:42:35;;;;;;;21.23;11.17;;;;;;;4.37;100.00;99152.96;3725917;79;43548;-70
2021/03/23 11:47:44;;;;;;;18.10;10.40;;;;;;;4.27;100.00;99156.26;3653655;81;43449;-71
2021/03/23 11:52:52;;;;;;;17.33;10.67;;;;;;;4.41;100.00;99141.98;3716154;79;44008;-70
2021/03/23 11:58:01;;;;;;;16.00;9.60;;;;;;;4.63;100.00;99140.04;3719590;79;43665;-70
2021/03/23 12:03:10;;;;;;;14.77;9.30;;;;;;;4.74;100.00;99137.11;3705135;79;44104;-70
2021/03/23 12:08:31;;;;;;;16.70;9.00;;;;;;;4.79;100.00;99134.95;3703984;79;43678;-70
2021/03/23 12:13:45;;;;;;;16.63;9.30;;;;;;;4.77;100.00;99139.53;3728828;79;44135;-68
2021/03/23 12:18:57;;;;;;;14.53;9.03;;;;;;;4.73;100.00;99146.07;3712053;77;43694;-70
2021/03/23 12:24:04;;;;;;;15.30;9.40;;;;;;;4.72;100.00;99151.03;3723048;79;43711;-67
2021/03/23 12:29:10;;;;;;;17.83;8.97;;;;;;;4.73;100.00;99144.73;3716843;79;44140;-68
2021/03/23 12:34:17;;;;;;;12.20;7.03;;;;;;;4.67;100.00;99142.02;3719418;79;43774;-68
2021/03/23 12:39:23;;;;;;;12.90;7.20;;;;;;;4.49;100.00;99149.46;3702922;79;43375;-68
2021/03/23 12:44:29;;;;;;;11.23;6.90;;;;;;;4.54;100.00;99149.15;3702400;79;44134;-68
2021/03/23 12:49:35;;;;;;;11.00;6.93;;;;;;;4.72;100.00;99147.03;3720245;79;43694;-68
2021/03/23 12:54:45;;;;;;;10.20;7.23;;;;;;;4.81;100.00;99133.03;3713455;79;44199;-68
2021/03/23 12:59:52;;;;;;;10.37;7.20;;;;;;;4.94;100.00;99127.67;3709935;79;43673;-68
2021/03/23 13:05:00;;;;;;;12.33;7.30;;;;;;;5.09;100.00;99127.09;3717495;79;43459;-68
2021/03/23 13:10:10;;;;;;;9.77;6.77;;;;;;;5.22;100.00;99126.60;3717646;79;44467;-68
2021/03/23 13:15:18;;;;;;;11.17;7.53;;;;;;;5.24;100.00;99120.64;3707657;79;43709;-69
2021/03/23 13:20:24;;;;;;;11.20;7.50;;;;;;;5.31;100.00;99113.53;3716936;79;44099;-69
2021/03/23 13:25:34;;;;;;;11.37;7.67;;;;;;;5.30;100.00;99112.66;3718769;79;44420;-69
2021/03/23 13:30:41;;;;;;;11.00;7.47;;;;;;;5.21;100.00;99114.20;3718470;79;44048;-68
2021/03/23 13:35:47;;;;;;;12.47;7.53;;;;;;;5.14;100.00;99103.56;3720114;79;43443;-68
2021/03/23 13:40:53;;;;;;;12.03;7.30;;;;;;;5.17;100.00;99111.37;3716644;79;43352;-68
2021/03/23 13:46:02;;;;;;;13.70;7.93;;;;;;;5.13;100.00;99101.86;3706120;79;43361;-69
2021/03/23 13:51:12;;;;;;;12.87;8.07;;;;;;;5.27;100.00;99106.69;3702343;79;43471;-69
2021/03/23 13:56:18;;;;;;;12.47;7.83;;;;;;;5.30;100.00;99111.83;3695507;79;44068;-68
2021/03/23 14:01:24;;;;;;;11.87;7.80;;;;;;;5.21;100.00;99112.87;3654785;79;44869;-69
2021/03/23 14:06:30;;;;;;;9.97;7.07;;;;;;;5.16;100.00;99107.48;3691007;79;44418;-68
2021/03/23 14:11:37;;;;;;;10.90;6.97;;;;;;;5.09;100.00;99110.58;3689427;79;43413;-68
2021/03/23 14:16:44;;;;;;;11.80;7.80;;;;;;;5.20;100.00;99101.80;3676550;79;43171;-68
2021/03/23 14:21:52;;;;;;;10.30;6.80;;;;;;;5.32;100.00;99102.73;3688966;79;43656;-68
2021/03/23 14:26:58;;;;;;;10.03;6.50;;;;;;;5.31;100.00;99101.02;3674136;79;44115;-68
2021/03/23 14:32:04;;;;;;;12.10;7.30;;;;;;;5.29;100.00;99103.44;3681877;79;44019;-68
2021/03/23 14:37:15;;;;;;;9.83;6.70;;;;;;;5.41;100.00;99110.56;3595515;81;44043;-68
2021/03/23 14:42:23;;;;;;;11.90;7.13;;;;;;;5.34;100.00;99099.97;3546081;83;44029;-69
2021/03/23 14:47:30;;;;;;;10.97;6.87;;;;;;;5.31;100.00;99095.67;3555581;83;43686;-69
2021/03/23 14:52:36;;;;;;;10.50;6.80;;;;;;;5.24;100.00;99109.95;3529772;83;44470;-69
2021/03/23 14:57:45;;;;;;;11.83;6.80;;;;;;;5.29;100.00;99094.08;3613997;81;43377;-73
2021/03/23 15:02:51;;;;;;;10.10;7.10;;;;;;;5.40;100.00;99086.14;3621474;81;44079;-67
2021/03/23 15:07:58;;;;;;;10.33;6.60;;;;;;;5.40;100.00;99089.69;3708742;79;43561;-69
2021/03/23 15:13:05;;;;;;;10.80;6.83;;;;;;;5.38;100.00;99094.75;3695954;79;44016;-69
2021/03/23 15:18:12;;;;;;;14.27;7.60;;;;;;;5.33;100.00;99085.73;3711259;79;44483;-68
2021/03/23 15:23:29;;;;;;;10.97;7.53;;;;;;;5.38;100.00;99084.92;3712116;79;44062;-69
2021/03/23 15:28:35;;;;;;;14.10;8.27;;;;;;;5.40;100.00;99083.00;3707034;79;43679;-69
2021/03/23 15:33:42;;;;;;;11.87;7.50;;;;;;;5.30;100.00;99081.10;3720331;79;43403;-69
2021/03/23 15:38:49;;;;;;;13.90;7.97;;;;;;;5.31;100.00;99090.33;3703674;79;43356;-69
2021/03/23 15:43:56;;;;;;;16.37;9.03;;;;;;;5.26;100.00;99085.81;3708865;79;42992;-67
2021/03/23 15:49:03;;;;;;;17.70;8.70;;;;;;;5.29;100.00;99080.27;3721659;79;43015;-68
2021/03/23 15:54:10;;;;;;;15.83;9.13;;;;;;;5.28;100.00;99077.22;3703744;79;43708;-68
2021/03/23 15:59:18;;;;;;;16.87;9.73;;;;;;;5.28;100.00;99077.22;3689167;79;44048;-68
2021/03/23 16:04:24;;;;;;;16.50;8.77;;;;;;;5.33;100.00;99074.20;3668579;79;44221;-69
2021/03/23 16:09:33;;;;;;;14.60;8.70;;;;;;;5.31;100.00;99078.30;3660881;79;43469;-68
2021/03/23 16:14:39;;;;;;;15.83;9.10;;;;;;;5.37;100.00;99071.66;3656067;79;43352;-68
2021/03/23 16:19:45;;;;;;;15.93;9.30;;;;;;;5.31;100.00;99072.96;3657814;79;44134;-68
2021/03/23 16:24:52;;;;;;;16.20;9.60;;;;;;;5.38;100.00;99071.56;3662542;79;44483;-69
2021/03/23 16:29:59;;;;;;;17.17;8.93;;;;;;;5.33;100.00;99072.87;3680210;79;43345;-68
2021/03/23 16:35:08;;;;;;;16.03;9.20;;;;;;;5.24;100.00;99073.88;3667623;79;43674;-67
2021/03/23 16:40:17;;;;;;;17.83;8.77;;;;;;;5.30;100.00;99073.08;3663252;79;43418;-67
2021/03/23 16:45:29;;;;;;;18.10;9.63;;;;;;;5.24;100.00;99077.05;3668679;79;43387;-67
2021/03/23 16:50:35;;;;;;;16.63;9.50;;;;;;;5.24;100.00;99073.88;3668469;79;43338;-68
2021/03/23 16:55:42;;;;;;;15.17;9.50;;;;;;;5.25;100.00;99086.28;3668525;79;43683;-68
2021/03/23 17:00:48;;;;;;;18.17;9.87;;;;;;;5.26;100.00;99091.16;3678872;79;42953;-68
2021/03/23 17:05:55;;;;;;;16.43;8.97;;;;;;;5.21;100.00;99086.63;3683417;79;43676;-68
2021/03/23 17:11:01;;;;;;;15.87;9.30;;;;;;;5.20;100.00;99093.80;3675126;79;44388;-70
2021/03/23 17:16:08;;;;;;;18.60;10.47;;;;;;;5.20;100.00;99093.80;3667998;79;44163;-69
2021/03/23 17:21:15;;;;;;;19.20;9.77;;;;;;;5.17;100.00;99090.00;3676034;79;43692;-67
2021/03/23 17:26:21;;;;;;;18.07;9.47;;;;;;;5.17;100.00;99098.51;3688386;79;43678;-69
2021/03/23 17:31:27;;;;;;;16.30;10.07;;;;;;;5.19;100.00;99096.55;3673911;79;43100;-67
2021/03/23 17:36:33;;;;;;;16.93;10.03;;;;;;;5.16;100.00;99100.31;3624033;81;43872;-71
2021/03/23 17:41:39;;;;;;;20.27;9.90;;;;;;;5.13;100.00;99100.52;3612247;81;43591;-74
2021/03/23 17:46:45;;;;;;;18.33;10.10;;;;;;;5.09;100.00;99099.05;3533029;83;43258;-68
2021/03/23 17:51:51;;;;;;;20.83;10.93;;;;;;;5.06;100.00;99104.11;3615578;81;44035;-70
2021/03/23 17:56:57;;;;;;;21.00;11.13;;;;;;;5.03;100.00;99101.68;3582059;82;43414;-70
2021/03/23 18:02:04;;;;;;;20.90;11.23;;;;;;;5.02;100.00;99107.98;3558540;81;43929;-68
2021/03/23 18:07:10;;;;;;;18.10;10.43;;;;;;;5.05;100.00;99109.57;3574692;81;43620;-67
2021/03/23 18:12:16;;;;;;;18.33;9.50;;;;;;;5.05;100.00;99113.58;3609173;81;43436;-63
2021/03/23 18:17:22;;;;;;;22.20;11.50;;;;;;;5.04;100.00;99113.20;3524685;83;43023;-68
2021/03/23 18:22:29;;;;;;;21.37;11.47;;;;;;;5.01;100.00;99112.95;3614913;81;43674;-69
2021/03/23 18:27:36;;;;;;;24.17;12.03;;;;;;;4.99;100.00;99116.70;3541238;82;43352;-69
2021/03/23 18:32:46;;;;;;;20.87;11.57;;;;;;;5.01;100.00;99124.09;3647967;80;44547;-69
2021/03/23 18:37:51;;;;;;;23.47;11.47;;;;;;;5.00;100.00;99117.08;3655265;80;43702;-69
2021/03/23 18:42:57;;;;;;;25.30;12.20;;;;;;;4.98;100.00;99121.66;3705891;79;44087;-69
2021/03/23 18:48:03;;;;;;;27.03;13.33;;;;;;;4.97;100.00;99121.28;3712659;79;43226;-69
2021/03/23 18:53:11;;;;;;;23.27;12.43;;;;;;;4.91;100.00;99124.75;3655334;80;43665;-69
2021/03/23 18:58:19;;;;;;;25.67;12.93;;;;;;;4.88;100.00;99122.78;3702794;79;43722;-68
2021/03/23 19:03:28;;;;;;;24.57;13.27;;;;;;;4.93;100.00;99129.51;3603225;80;44028;-69
2021/03/23 19:08:36;;;;;;;26.33;13.13;;;;;;;4.96;100.00;99130.26;3619333;80;26830;-70
2021/03/23 19:13:43;;;;;;;32.37;13.60;;;;;;;4.96;100.00;99134.27;3605571;82;44136;-70
2021/03/23 19:18:49;;;;;;;23.13;12.57;;;;;;;4.98;100.00;99136.35;3614458;82;43489;-70
2021/03/23 19:23:58;;;;;;;24.13;13.70;;;;;;;4.96;100.00;99142.27;3613087;82;44423;-70
2021/03/23 19:29:05;;;;;;;27.83;14.23;;;;;;;4.87;100.00;99130.41;3620303;82;43719;-69
2021/03/23 19:34:13;;;;;;;28.17;14.03;;;;;;;4.79;100.00;99136.29;3583601;82;43480;-68
2021/03/23 19:39:20;;;;;;;24.53;13.70;;;;;;;4.78;100.00;99133.23;3603273;82;43704;-69
2021/03/23 19:44:27;;;;;;;30.53;14.50;;;;;;;4.76;100.00;99127.18;3606669;82;43677;-70
2021/03/23 19:49:34;;;;;;;23.93;12.33;;;;;;;4.69;100.00;99122.75;3604370;82;44545;-71
2021/03/23 19:54:40;;;;;;;25.40;13.07;;;;;;;4.67;100.00;99122.45;3583901;82;43205;-71
2021/03/23 19:59:46;;;;;;;25.93;13.27;;;;;;;4.68;100.00;99128.17;3589275;79;44131;-70
2021/03/23 20:04:52;;;;;;;28.60;13.47;;;;;;;4.66;100.00;99130.09;3771149;77;43949;-70
2021/03/23 20:09:58;;;;;;;19.40;11.60;;;;;;;4.64;100.00;99128.88;3771780;77;44064;-70
2021/03/23 20:15:05;;;;;;;24.20;12.23;;;;;;;4.63;100.00;99128.03;3772479;77;43678;-71
2021/03/23 20:20:15;;;;;;;36.40;18.07;;;;;;;4.58;100.00;99134.16;3773822;77;43870;-71
2021/03/23 20:25:23;;;;;;;28.37;14.57;;;;;;;4.54;100.00;99129.13;3774084;77;44515;-70
2021/03/23 20:30:31;;;;;;;32.73;15.57;;;;;;;4.49;100.00;99133.45;3789867;77;44023;-71
2021/03/23 20:35:42;;;;;;;31.20;15.60;;;;;;;4.40;100.00;99132.75;3794981;77;44005;-72
2021/03/23 20:40:49;;;;;;;28.90;14.90;;;;;;;4.34;100.00;99125.16;3783481;77;44446;-72
2021/03/23 20:45:59;;;;;;;34.37;16.33;;;;;;;4.21;100.00;99127.80;3782302;77;44728;-70
2021/03/23 20:51:10;;;;;;;28.97;14.97;;;;;;;4.11;100.00;99127.56;3785618;77;43445;-70
2021/03/23 20:56:16;;;;;;;34.77;16.50;;;;;;;4.07;100.00;99135.38;3787002;77;44473;-71
2021/03/23 21:01:22;;;;;;;35.20;16.20;;;;;;;3.95;100.00;99134.40;3782919;77;44074;-71
2021/03/23 21:06:28;;;;;;;32.97;16.13;;;;;;;3.95;100.00;99138.39;3790196;77;43185;-72
2021/03/23 21:11:36;;;;;;;36.27;17.13;;;;;;;3.90;100.00;99137.37;3787181;77;43988;-71
2021/03/23 21:16:43;;;;;;;33.23;16.13;;;;;;;3.84;100.00;99138.63;3775140;77;43407;-72
2021/03/23 21:21:51;;;;;;;30.97;15.63;;;;;;;3.79;100.00;99137.22;3780549;77;43223;-72
2021/03/23 21:26:57;;;;;;;33.87;15.37;;;;;;;3.70;100.00;99139.51;3804658;77;44028;-72
2021/03/23 21:32:03;;;;;;;33.70;16.90;;;;;;;3.58;100.00;99135.00;3777322;77;43675;-72
2021/03/23 21:37:10;;;;;;;31.57;15.40;;;;;;;3.46;100.00;99143.78;3792032;77;43057;-72
2021/03/23 21:42:17;;;;;;;35.80;16.83;;;;;;;3.37;100.00;99145.22;3776987;77;43955;-72
2021/03/23 21:47:31;;;;;;;34.70;15.73;;;;;;;3.35;100.00;99143.97;3786753;77;44011;-69
2021/03/23 21:52:32;;;;;;;33.90;16.73;;;;;;;3.31;100.00;99143.80;3772366;77;43037;-72
2021/03/23 21:57:38;;;;;;;34.67;15.80;;;;;;;3.23;100.00;99138.12;3764570;77;43956;-72
2021/03/23 22:02:45;;;;;;;31.43;15.37;;;;;;;3.18;100.00;99138.87;3747329;77;43684;-72
2021/03/23 22:07:52;;;;;;;34.50;15.33;;;;;;;3.14;100.00;99141.33;3717982;79;44634;-69
2021/03/23 22:12:58;;;;;;;33.60;15.50;;;;;;;3.08;100.00;99141.24;3702202;79;44010;-70
2021/03/23 22:18:05;;;;;;;30.53;15.23;;;;;;;3.02;100.00;99140.31;3710435;79;44105;-71
2021/03/23 22:23:12;;;;;;;32.43;15.30;;;;;;;2.96;100.00;99138.01;3712218;79;43681;-71
2021/03/23 22:28:19;;;;;;;35.67;14.57;;;;;;;2.90;100.00;99149.89;3720541;79;43141;-71
2021/03/23 22:33:25;;;;;;;34.43;15.67;;;;;;;2.84;100.00;99142.30;3705897;79;43156;-71
2021/03/23 22:38:34;;;;;;;32.07;15.77;;;;;;;2.83;100.00;99148.57;3731618;79;43607;-70
2021/03/23 22:43:40;;;;;;;36.53;16.60;;;;;;;2.77;100.00;99143.15;3722906;79;44577;-71
2021/03/23 22:48:46;;;;;;;35.77;15.90;;;;;;;2.77;100.00;99139.16;3719961;79;42728;-71
2021/03/23 22:53:52;;;;;;;32.37;16.50;;;;;;;2.80;100.00;99134.98;3724480;79;43232;-71
2021/03/23 22:58:58;;;;;;;37.80;16.77;;;;;;;2.77;100.00;99136.01;3706483;79;43611;-70
2021/03/23 23:04:04;;;;;;;32.47;15.67;;;;;;;2.76;100.00;99135.62;3738894;78;43924;-70
2021/03/23 23:09:10;;;;;;;38.13;16.37;;;;;;;2.71;100.00;99128.42;3778337;78;43137;-71
2021/03/23 23:14:16;;;;;;;35.90;16.13;;;;;;;2.66;100.00;99125.66;3757201;78;44051;-70
2021/03/23 23:19:26;;;;;;;36.53;16.47;;;;;;;2.58;100.00;99119.47;3772724;78;43286;-71
2021/03/23 23:24:35;;;;;;;34.87;15.50;;;;;;;2.52;100.00;99120.70;3787962;78;43353;-72
2021/03/23 23:29:42;;;;;;;32.97;15.50;;;;;;;2.45;100.00;99114.05;3775401;77;43457;-72
2021/03/23 23:34:48;;;;;;;33.73;15.40;;;;;;;2.36;100.00;99112.80;3774655;77;43552;-71
2021/03/23 23:39:54;;;;;;;33.67;15.30;;;;;;;2.28;100.00;99117.72;3775377;76;42612;-71
2021/03/23 23:44:59;;;;;;;35.67;16.03;;;;;;;2.17;100.00;99112.19;3770020;78;43390;-71
2021/03/23 23:50:07;;;;;;;32.03;14.67;;;;;;;2.09;100.00;99116.13;3749258;78;43252;-71
2021/03/23 23:55:16;;;;;;;34.50;15.50;;;;;;;2.01;100.00;99115.73;3752305;78;44885;-71
